LICJ/PMO METAR and TAF weather

Enter ICAO airport designator
Station Type Date Time Source
LICJ METAR 2018/12/17 16:20 UTC NOAA

LICJ 171620Z 28024KT 9999 FEW030 SCT040 15/09 Q1016


Station Type Date Time Source
LICJ Decoded METAR 2018/12/17 16:20 UTC NOAA

Palermo / Punta Raisi, Italy (LICJ) 38-11N 013-06E 21M
Dec 17, 2018 - 11:20 AM EST / 2018.12.17 1620 UTC
Wind: from the W (280 degrees) at 28 MPH (24 KT):0
Visibility: greater than 7 mile(s):0
Sky conditions: partly cloudy
Temperature: 59 F (15 C)
Dew Point: 48 F (9 C)
Relative Humidity: 67%
Pressure (altimeter): 30.00 in. Hg (1016 hPa)
ob: LICJ 171620Z 28024KT 9999 FEW030 SCT040 15/09 Q1016
cycle: 16

Station Type Date Time Source
LICJ TAF 2018/12/17 12:21 UTC NOAA

TAF LICJ 171100Z 1712/1812 27020G35KT 9999 BKN030
TEMPO 1712/1721 4000 TSRA
BECMG 1718/1720 34025G35KT
TEMPO 1721/1806 4000 SHRA


Example: see airport list